sensor_id;sensor_type;location;lat;lon;timestamp;temperature;humidity
5415;DHT22;2730;51.512;7.504;2023-05-08T00:01:25;14.00;99.90
5415;DHT22;2730;51.512;7.504;2023-05-08T00:03:51;13.90;99.90
5415;DHT22;2730;51.512;7.504;2023-05-08T00:06:19;13.90;99.90
5415;DHT22;2730;51.512;7.504;2023-05-08T00:08:47;13.90;99.90
5415;DHT22;2730;51.512;7.504;2023-05-08T00:11:13;13.90;99.90
5415;DHT22;2730;51.512;7.504;2023-05-08T00:13:40;13.80;99.90
5415;DHT22;2730;51.512;7.504;2023-05-08T00:16:07;13.80;99.90
5415;DHT22;2730;51.512;7.504;2023-05-08T00:18:35;13.90;99.90
5415;DHT22;2730;51.512;7.504;2023-05-08T00:21:03;13.80;99.90
5415;DHT22;2730;51.512;7.504;2023-05-08T00:23:29;13.80;99.90
5415;DHT22;2730;51.512;7.504;2023-05-08T00:25:58;13.80;99.90
5415;DHT22;2730;51.512;7.504;2023-05-08T00:28:25;13.80;99.90
5415;DHT22;2730;51.512;7.504;2023-05-08T00:30:51;13.80;99.90
5415;DHT22;2730;51.512;7.504;2023-05-08T00:33:18;13.80;99.90
5415;DHT22;2730;51.512;7.504;2023-05-08T00:35:45;13.70;99.90
5415;DHT22;2730;51.512;7.504;2023-05-08T00:38:12;13.70;99.90
5415;DHT22;2730;51.512;7.504;2023-05-08T00:40:38;13.80;99.90
5415;DHT22;2730;51.512;7.504;2023-05-08T00:43:06;13.80;99.90
5415;DHT22;2730;51.512;7.504;2023-05-08T00:45:35;13.70;99.90
5415;DHT22;2730;51.512;7.504;2023-05-08T00:48:03;13.60;99.90
5415;DHT22;2730;51.512;7.504;2023-05-08T00:50:30;13.60;99.90
5415;DHT22;2730;51.512;7.504;2023-05-08T00:52:58;13.50;99.90
5415;DHT22;2730;51.512;7.504;2023-05-08T00:55:26;13.50;99.90
5415;DHT22;2730;51.512;7.504;2023-05-08T00:57:53;13.40;99.90
5415;DHT22;2730;51.512;7.504;2023-05-08T01:00:21;13.40;99.90
5415;DHT22;2730;51.512;7.504;2023-05-08T01:02:49;13.40;99.90
5415;DHT22;2730;51.512;7.504;2023-05-08T01:05:16;13.40;99.90
5415;DHT22;2730;51.512;7.504;2023-05-08T01:07:43;13.40;99.90
5415;DHT22;2730;51.512;7.504;2023-05-08T01:10:10;13.40;99.90
5415;DHT22;2730;51.512;7.504;2023-05-08T01:12:46;13.50;99.90
5415;DHT22;2730;51.512;7.504;2023-05-08T01:15:17;13.40;99.90
5415;DHT22;2730;51.512;7.504;2023-05-08T01:17:56;13.30;99.90
5415;DHT22;2730;51.512;7.504;2023-05-08T01:20:34;13.40;99.90
5415;DHT22;2730;51.512;7.504;2023-05-08T01:23:40;13.30;99.90
5415;DHT22;2730;51.512;7.504;2023-05-08T01:26:37;13.30;99.90
5415;DHT22;2730;51.512;7.504;2023-05-08T01:29:42;13.30;99.90
5415;DHT22;2730;51.512;7.504;2023-05-08T01:32:16;13.30;99.90
5415;DHT22;2730;51.512;7.504;2023-05-08T01:34:51;13.20;99.90
5415;DHT22;2730;51.512;7.504;2023-05-08T01:37:27;13.10;99.90
5415;DHT22;2730;51.512;7.504;2023-05-08T01:40:00;13.10;99.90
5415;DHT22;2730;51.512;7.504;2023-05-08T01:42:35;13.10;99.90
5415;DHT22;2730;51.512;7.504;2023-05-08T01:45:11;13.10;99.90
5415;DHT22;2730;51.512;7.504;2023-05-08T01:47:40;13.10;99.90
5415;DHT22;2730;51.512;7.504;2023-05-08T01:50:13;13.10;99.90
5415;DHT22;2730;51.512;7.504;2023-05-08T01:52:44;13.10;99.90
5415;DHT22;2730;51.512;7.504;2023-05-08T01:55:17;13.00;99.90
5415;DHT22;2730;51.512;7.504;2023-05-08T01:57:46;13.10;99.90
5415;DHT22;2730;51.512;7.504;2023-05-08T02:00:17;13.10;99.90
5415;DHT22;2730;51.512;7.504;2023-05-08T02:02:47;13.10;99.90
5415;DHT22;2730;51.512;7.504;2023-05-08T02:05:15;13.00;99.90
5415;DHT22;2730;51.512;7.504;2023-05-08T02:07:45;13.00;99.90
5415;DHT22;2730;51.512;7.504;2023-05-08T02:10:14;13.00;99.90
5415;DHT22;2730;51.512;7.504;2023-05-08T02:12:42;13.10;99.90
5415;DHT22;2730;51.512;7.504;2023-05-08T02:15:11;13.20;99.90
5415;DHT22;2730;51.512;7.504;2023-05-08T02:17:40;13.10;99.90
5415;DHT22;2730;51.512;7.504;2023-05-08T02:20:10;13.10;99.90
5415;DHT22;2730;51.512;7.504;2023-05-08T02:22:41;13.10;99.90
5415;DHT22;2730;51.512;7.504;2023-05-08T02:25:09;13.10;99.90
5415;DHT22;2730;51.512;7.504;2023-05-08T02:27:39;13.10;99.90
5415;DHT22;2730;51.512;7.504;2023-05-08T02:30:10;13.10;99.90
5415;DHT22;2730;51.512;7.504;2023-05-08T02:32:38;13.10;99.90
5415;DHT22;2730;51.512;7.504;2023-05-08T02:35:09;13.10;99.90
5415;DHT22;2730;51.512;7.504;2023-05-08T02:37:37;13.10;99.90
5415;DHT22;2730;51.512;7.504;2023-05-08T02:40:06;13.10;99.90
5415;DHT22;2730;51.512;7.504;2023-05-08T02:42:34;13.10;99.90
5415;DHT22;2730;51.512;7.504;2023-05-08T02:45:01;13.10;99.90
5415;DHT22;2730;51.512;7.504;2023-05-08T02:47:36;13.10;99.90
5415;DHT22;2730;51.512;7.504;2023-05-08T02:50:12;13.10;99.90
5415;DHT22;2730;51.512;7.504;2023-05-08T02:52:44;13.00;99.90
5415;DHT22;2730;51.512;7.504;2023-05-08T02:55:24;13.00;99.90
5415;DHT22;2730;51.512;7.504;2023-05-08T02:57:57;13.00;99.90
5415;DHT22;2730;51.512;7.504;2023-05-08T03:00:32;13.00;99.90
5415;DHT22;2730;51.512;7.504;2023-05-08T03:03:08;13.00;99.90
5415;DHT22;2730;51.512;7.504;2023-05-08T03:05:43;13.00;99.90
5415;DHT22;2730;51.512;7.504;2023-05-08T03:08:15;12.90;99.90
5415;DHT22;2730;51.512;7.504;2023-05-08T03:10:46;12.80;99.90
5415;DHT22;2730;51.512;7.504;2023-05-08T03:13:15;12.80;99.90
5415;DHT22;2730;51.512;7.504;2023-05-08T03:15:45;12.80;99.90
5415;DHT22;2730;51.512;7.504;2023-05-08T03:18:15;12.80;99.90
5415;DHT22;2730;51.512;7.504;2023-05-08T03:20:47;12.80;99.90
5415;DHT22;2730;51.512;7.504;2023-05-08T03:23:17;12.80;99.90
5415;DHT22;2730;51.512;7.504;2023-05-08T03:25:45;12.80;99.90
5415;DHT22;2730;51.512;7.504;2023-05-08T03:28:12;12.80;99.90
5415;DHT22;2730;51.512;7.504;2023-05-08T03:30:40;12.80;99.90
5415;DHT22;2730;51.512;7.504;2023-05-08T03:33:08;12.70;99.90
5415;DHT22;2730;51.512;7.504;2023-05-08T03:35:35;12.70;99.90
5415;DHT22;2730;51.512;7.504;2023-05-08T03:38:04;12.70;99.90
5415;DHT22;2730;51.512;7.504;2023-05-08T03:40:33;12.70;99.90
5415;DHT22;2730;51.512;7.504;2023-05-08T03:43:04;12.70;99.90
5415;DHT22;2730;51.512;7.504;2023-05-08T03:45:34;12.60;99.90
5415;DHT22;2730;51.512;7.504;2023-05-08T03:48:03;12.60;99.90
5415;DHT22;2730;51.512;7.504;2023-05-08T03:50:31;12.60;99.90
5415;DHT22;2730;51.512;7.504;2023-05-08T03:53:00;12.60;99.90
5415;DHT22;2730;51.512;7.504;2023-05-08T03:55:29;12.60;99.90
5415;DHT22;2730;51.512;7.504;2023-05-08T03:58:00;12.50;99.90
5415;DHT22;2730;51.512;7.504;2023-05-08T04:00:40;12.50;99.90
5415;DHT22;2730;51.512;7.504;2023-05-08T04:03:19;12.50;99.90
5415;DHT22;2730;51.512;7.504;2023-05-08T04:05:52;12.50;99.90
5415;DHT22;2730;51.512;7.504;2023-05-08T04:08:24;12.60;99.90
5415;DHT22;2730;51.512;7.504;2023-05-08T04:11:02;12.60;99.90
5415;DHT22;2730;51.512;7.504;2023-05-08T04:13:31;12.60;99.90
5415;DHT22;2730;51.512;7.504;2023-05-08T04:16:05;12.60;99.90
5415;DHT22;2730;51.512;7.504;2023-05-08T04:18:36;12.60;99.90
5415;DHT22;2730;51.512;7.504;2023-05-08T04:21:07;12.60;99.90
5415;DHT22;2730;51.512;7.504;2023-05-08T04:23:35;12.60;99.90
5415;DHT22;2730;51.512;7.504;2023-05-08T04:26:06;12.60;99.90
5415;DHT22;2730;51.512;7.504;2023-05-08T04:28:34;12.60;99.90
5415;DHT22;2730;51.512;7.504;2023-05-08T04:31:02;12.60;99.90
5415;DHT22;2730;51.512;7.504;2023-05-08T04:33:30;12.60;99.90
5415;DHT22;2730;51.512;7.504;2023-05-08T04:35:59;12.60;99.90
5415;DHT22;2730;51.512;7.504;2023-05-08T04:38:26;12.60;99.90
5415;DHT22;2730;51.512;7.504;2023-05-08T04:40:53;12.60;99.90
5415;DHT22;2730;51.512;7.504;2023-05-08T04:43:21;12.60;99.90
5415;DHT22;2730;51.512;7.504;2023-05-08T04:45:48;12.60;99.90
5415;DHT22;2730;51.512;7.504;2023-05-08T04:48:15;12.60;99.90
5415;DHT22;2730;51.512;7.504;2023-05-08T04:50:43;12.60;99.90
5415;DHT22;2730;51.512;7.504;2023-05-08T04:53:10;12.70;99.90
5415;DHT22;2730;51.512;7.504;2023-05-08T04:55:36;12.70;99.90
5415;DHT22;2730;51.512;7.504;2023-05-08T04:58:03;12.70;99.90
5415;DHT22;2730;51.512;7.504;2023-05-08T05:00:32;12.80;99.90
5415;DHT22;2730;51.512;7.504;2023-05-08T05:02:59;12.80;99.90
5415;DHT22;2730;51.512;7.504;2023-05-08T05:05:26;12.90;99.90
5415;DHT22;2730;51.512;7.504;2023-05-08T05:07:53;13.00;99.90
5415;DHT22;2730;51.512;7.504;2023-05-08T05:10:20;13.00;99.90
5415;DHT22;2730;51.512;7.504;2023-05-08T05:12:46;13.10;99.90
5415;DHT22;2730;51.512;7.504;2023-05-08T05:15:13;13.10;99.90
5415;DHT22;2730;51.512;7.504;2023-05-08T05:17:41;13.20;99.90
5415;DHT22;2730;51.512;7.504;2023-05-08T05:20:09;13.20;99.90
5415;DHT22;2730;51.512;7.504;2023-05-08T05:22:36;13.30;99.90
5415;DHT22;2730;51.512;7.504;2023-05-08T05:25:03;13.30;99.90
5415;DHT22;2730;51.512;7.504;2023-05-08T05:27:30;13.30;99.90
5415;DHT22;2730;51.512;7.504;2023-05-08T05:29:57;13.30;99.90
5415;DHT22;2730;51.512;7.504;2023-05-08T05:32:24;13.20;99.90
5415;DHT22;2730;51.512;7.504;2023-05-08T05:34:52;13.20;99.90
5415;DHT22;2730;51.512;7.504;2023-05-08T05:37:19;13.20;99.90
5415;DHT22;2730;51.512;7.504;2023-05-08T05:39:46;13.20;99.90
5415;DHT22;2730;51.512;7.504;2023-05-08T05:42:13;13.20;99.90
5415;DHT22;2730;51.512;7.504;2023-05-08T05:44:40;13.30;99.90
5415;DHT22;2730;51.512;7.504;2023-05-08T05:47:07;13.30;99.90
5415;DHT22;2730;51.512;7.504;2023-05-08T05:49:35;13.30;99.90
5415;DHT22;2730;51.512;7.504;2023-05-08T05:52:05;13.40;99.90
5415;DHT22;2730;51.512;7.504;2023-05-08T05:54:32;13.50;99.90
5415;DHT22;2730;51.512;7.504;2023-05-08T05:56:58;13.60;99.90
5415;DHT22;2730;51.512;7.504;2023-05-08T05:59:25;13.70;99.90
5415;DHT22;2730;51.512;7.504;2023-05-08T06:01:52;13.90;99.90
5415;DHT22;2730;51.512;7.504;2023-05-08T06:04:18;14.00;99.90
5415;DHT22;2730;51.512;7.504;2023-05-08T06:06:45;14.20;99.90
5415;DHT22;2730;51.512;7.504;2023-05-08T06:09:14;14.40;99.90
5415;DHT22;2730;51.512;7.504;2023-05-08T06:11:41;14.60;99.90
5415;DHT22;2730;51.512;7.504;2023-05-08T06:14:08;14.90;99.90
5415;DHT22;2730;51.512;7.504;2023-05-08T06:16:35;15.00;99.90
5415;DHT22;2730;51.512;7.504;2023-05-08T06:19:02;15.10;99.90
5415;DHT22;2730;51.512;7.504;2023-05-08T06:21:29;15.20;99.90
5415;DHT22;2730;51.512;7.504;2023-05-08T06:23:55;15.30;99.90
5415;DHT22;2730;51.512;7.504;2023-05-08T06:26:23;15.30;99.90
5415;DHT22;2730;51.512;7.504;2023-05-08T06:28:50;15.40;99.90
5415;DHT22;2730;51.512;7.504;2023-05-08T06:31:17;15.60;99.90
5415;DHT22;2730;51.512;7.504;2023-05-08T06:33:44;15.80;99.90
5415;DHT22;2730;51.512;7.504;2023-05-08T06:36:11;16.00;99.90
5415;DHT22;2730;51.512;7.504;2023-05-08T06:38:38;16.10;99.90
5415;DHT22;2730;51.512;7.504;2023-05-08T06:41:05;16.20;99.90
5415;DHT22;2730;51.512;7.504;2023-05-08T06:43:33;16.20;99.90
5415;DHT22;2730;51.512;7.504;2023-05-08T06:45:59;16.20;99.90
5415;DHT22;2730;51.512;7.504;2023-05-08T06:48:26;16.10;99.90
5415;DHT22;2730;51.512;7.504;2023-05-08T06:50:53;16.10;99.90
5415;DHT22;2730;51.512;7.504;2023-05-08T06:53:20;16.20;99.90
5415;DHT22;2730;51.512;7.504;2023-05-08T06:55:47;16.30;99.90
5415;DHT22;2730;51.512;7.504;2023-05-08T06:58:14;16.40;99.90
5415;DHT22;2730;51.512;7.504;2023-05-08T07:00:42;16.40;99.90
5415;DHT22;2730;51.512;7.504;2023-05-08T07:03:09;16.50;99.90
5415;DHT22;2730;51.512;7.504;2023-05-08T07:05:36;16.60;99.90
5415;DHT22;2730;51.512;7.504;2023-05-08T07:08:03;16.70;99.90
5415;DHT22;2730;51.512;7.504;2023-05-08T07:10:29;16.90;99.90
5415;DHT22;2730;51.512;7.504;2023-05-08T07:12:56;17.00;99.90
5415;DHT22;2730;51.512;7.504;2023-05-08T07:15:23;17.20;99.90
5415;DHT22;2730;51.512;7.504;2023-05-08T07:17:51;17.20;99.90
5415;DHT22;2730;51.512;7.504;2023-05-08T07:20:18;17.30;99.90
5415;DHT22;2730;51.512;7.504;2023-05-08T07:22:45;17.30;99.90
5415;DHT22;2730;51.512;7.504;2023-05-08T07:25:12;17.50;99.90
5415;DHT22;2730;51.512;7.504;2023-05-08T07:27:39;17.60;99.90
5415;DHT22;2730;51.512;7.504;2023-05-08T07:30:07;17.70;99.90
5415;DHT22;2730;51.512;7.504;2023-05-08T07:32:34;17.70;92.50
5415;DHT22;2730;51.512;7.504;2023-05-08T07:35:05;17.70;99.90
5415;DHT22;2730;51.512;7.504;2023-05-08T07:37:33;17.70;99.90
5415;DHT22;2730;51.512;7.504;2023-05-08T07:40:00;17.80;99.90
5415;DHT22;2730;51.512;7.504;2023-05-08T07:42:27;18.00;97.90
5415;DHT22;2730;51.512;7.504;2023-05-08T07:44:53;18.20;99.90
5415;DHT22;2730;51.512;7.504;2023-05-08T07:47:20;18.30;91.70
5415;DHT22;2730;51.512;7.504;2023-05-08T07:49:47;18.30;44.90
5415;DHT22;2730;51.512;7.504;2023-05-08T07:52:15;18.40;1.00
5415;DHT22;2730;51.512;7.504;2023-05-08T07:54:42;18.50;1.00
5415;DHT22;2730;51.512;7.504;2023-05-08T07:57:09;18.50;1.00
5415;DHT22;2730;51.512;7.504;2023-05-08T07:59:36;18.40;18.20
5415;DHT22;2730;51.512;7.504;2023-05-08T08:02:02;18.30;1.00
5415;DHT22;2730;51.512;7.504;2023-05-08T08:04:29;18.20;1.00
5415;DHT22;2730;51.512;7.504;2023-05-08T08:06:56;18.30;8.80
5415;DHT22;2730;51.512;7.504;2023-05-08T08:09:24;18.30;1.00
5415;DHT22;2730;51.512;7.504;2023-05-08T08:11:51;18.30;1.00
5415;DHT22;2730;51.512;7.504;2023-05-08T08:14:17;18.30;1.00
5415;DHT22;2730;51.512;7.504;2023-05-08T08:16:44;18.30;1.00
5415;DHT22;2730;51.512;7.504;2023-05-08T08:19:11;18.40;1.00
5415;DHT22;2730;51.512;7.504;2023-05-08T08:21:41;18.50;35.60
5415;DHT22;2730;51.512;7.504;2023-05-08T08:24:08;18.60;25.80
5415;DHT22;2730;51.512;7.504;2023-05-08T08:26:36;18.80;1.00
5415;DHT22;2730;51.512;7.504;2023-05-08T08:29:03;18.80;1.00
5415;DHT22;2730;51.512;7.504;2023-05-08T08:31:30;18.80;41.20
5415;DHT22;2730;51.512;7.504;2023-05-08T08:33:57;18.90;1.00
5415;DHT22;2730;51.512;7.504;2023-05-08T08:36:24;18.90;65.90
5415;DHT22;2730;51.512;7.504;2023-05-08T08:38:51;18.90;1.00
5415;DHT22;2730;51.512;7.504;2023-05-08T08:41:18;18.90;1.00
5415;DHT22;2730;51.512;7.504;2023-05-08T08:43:47;18.80;1.00
5415;DHT22;2730;51.512;7.504;2023-05-08T08:46:13;18.80;4.80
5415;DHT22;2730;51.512;7.504;2023-05-08T08:48:43;18.80;1.00
5415;DHT22;2730;51.512;7.504;2023-05-08T08:51:13;18.80;1.00
5415;DHT22;2730;51.512;7.504;2023-05-08T08:53:45;18.60;21.90
5415;DHT22;2730;51.512;7.504;2023-05-08T08:56:15;18.60;1.00
5415;DHT22;2730;51.512;7.504;2023-05-08T08:58:48;18.80;1.00
5415;DHT22;2730;51.512;7.504;2023-05-08T09:01:19;18.90;53.60
5415;DHT22;2730;51.512;7.504;2023-05-08T09:03:48;19.10;1.00
5415;DHT22;2730;51.512;7.504;2023-05-08T09:06:15;19.30;1.00
5415;DHT22;2730;51.512;7.504;2023-05-08T09:08:43;19.50;1.00
5415;DHT22;2730;51.512;7.504;2023-05-08T09:11:09;19.60;1.00
5415;DHT22;2730;51.512;7.504;2023-05-08T09:13:36;19.80;99.90
5415;DHT22;2730;51.512;7.504;2023-05-08T09:16:05;19.70;99.90
5415;DHT22;2730;51.512;7.504;2023-05-08T09:18:32;19.80;1.00
5415;DHT22;2730;51.512;7.504;2023-05-08T09:20:59;19.50;2.30
5415;DHT22;2730;51.512;7.504;2023-05-08T09:23:26;19.70;1.00
5415;DHT22;2730;51.512;7.504;2023-05-08T09:25:53;20.00;99.90
5415;DHT22;2730;51.512;7.504;2023-05-08T09:28:21;19.90;99.90
5415;DHT22;2730;51.512;7.504;2023-05-08T09:30:50;20.10;1.00
5415;DHT22;2730;51.512;7.504;2023-05-08T09:33:18;20.30;1.00
5415;DHT22;2730;51.512;7.504;2023-05-08T09:35:46;20.40;74.70
5415;DHT22;2730;51.512;7.504;2023-05-08T09:38:36;20.50;1.00
5415;DHT22;2730;51.512;7.504;2023-05-08T09:41:07;20.70;1.00
5415;DHT22;2730;51.512;7.504;2023-05-08T09:43:34;20.80;99.90
5415;DHT22;2730;51.512;7.504;2023-05-08T09:46:21;20.50;99.90
5415;DHT22;2730;51.512;7.504;2023-05-08T09:48:50;20.30;99.90
5415;DHT22;2730;51.512;7.504;2023-05-08T09:51:17;20.10;17.50
5415;DHT22;2730;51.512;7.504;2023-05-08T09:53:44;20.10;99.90
5415;DHT22;2730;51.512;7.504;2023-05-08T09:56:11;20.00;99.90
5415;DHT22;2730;51.512;7.504;2023-05-08T09:58:38;20.10;99.90
5415;DHT22;2730;51.512;7.504;2023-05-08T10:01:06;20.10;99.90
5415;DHT22;2730;51.512;7.504;2023-05-08T10:03:46;20.20;1.00
5415;DHT22;2730;51.512;7.504;2023-05-08T10:06:15;20.10;1.00
5415;DHT22;2730;51.512;7.504;2023-05-08T10:08:42;20.00;1.00
5415;DHT22;2730;51.512;7.504;2023-05-08T10:11:15;20.10;1.00
5415;DHT22;2730;51.512;7.504;2023-05-08T10:13:42;20.20;99.90
5415;DHT22;2730;51.512;7.504;2023-05-08T10:16:13;20.20;46.80
5415;DHT22;2730;51.512;7.504;2023-05-08T10:18:45;20.20;99.90
5415;DHT22;2730;51.512;7.504;2023-05-08T10:21:15;20.20;1.00
5415;DHT22;2730;51.512;7.504;2023-05-08T10:23:43;20.10;1.00
5415;DHT22;2730;51.512;7.504;2023-05-08T10:26:13;20.10;99.90
5415;DHT22;2730;51.512;7.504;2023-05-08T10:28:45;20.00;99.90
5415;DHT22;2730;51.512;7.504;2023-05-08T10:31:17;20.00;1.00
5415;DHT22;2730;51.512;7.504;2023-05-08T10:33:44;20.00;1.00
5415;DHT22;2730;51.512;7.504;2023-05-08T10:36:11;20.20;1.00
5415;DHT22;2730;51.512;7.504;2023-05-08T10:38:41;20.00;1.00
5415;DHT22;2730;51.512;7.504;2023-05-08T10:41:09;19.90;30.00
5415;DHT22;2730;51.512;7.504;2023-05-08T10:43:41;19.80;99.90
5415;DHT22;2730;51.512;7.504;2023-05-08T10:46:14;19.70;1.00
5415;DHT22;2730;51.512;7.504;2023-05-08T10:48:49;19.60;1.00
5415;DHT22;2730;51.512;7.504;2023-05-08T10:51:26;19.60;1.00
5415;DHT22;2730;51.512;7.504;2023-05-08T10:54:05;19.70;99.90
5415;DHT22;2730;51.512;7.504;2023-05-08T10:56:37;19.80;99.90
5415;DHT22;2730;51.512;7.504;2023-05-08T10:59:04;19.90;99.90
5415;DHT22;2730;51.512;7.504;2023-05-08T11:01:31;20.00;99.90
5415;DHT22;2730;51.512;7.504;2023-05-08T11:03:58;20.00;1.00
5415;DHT22;2730;51.512;7.504;2023-05-08T11:06:45;19.90;1.00
5415;DHT22;2730;51.512;7.504;2023-05-08T11:09:22;20.00;1.00
5415;DHT22;2730;51.512;7.504;2023-05-08T11:12:03;20.00;1.00
5415;DHT22;2730;51.512;7.504;2023-05-08T11:14:32;20.10;1.00
5415;DHT22;2730;51.512;7.504;2023-05-08T11:17:07;20.30;1.00
5415;DHT22;2730;51.512;7.504;2023-05-08T11:19:36;20.30;1.00
5415;DHT22;2730;51.512;7.504;2023-05-08T11:22:30;20.40;1.00
5415;DHT22;2730;51.512;7.504;2023-05-08T11:25:06;20.50;99.90
5415;DHT22;2730;51.512;7.504;2023-05-08T11:30:35;20.40;1.00
5415;DHT22;2730;51.512;7.504;2023-05-08T11:33:15;20.40;1.00
5415;DHT22;2730;51.512;7.504;2023-05-08T11:35:47;20.40;1.00
5415;DHT22;2730;51.512;7.504;2023-05-08T11:38:19;20.40;1.00
5415;DHT22;2730;51.512;7.504;2023-05-08T11:40:53;20.40;1.00
5415;DHT22;2730;51.512;7.504;2023-05-08T11:46:37;20.60;1.00
5415;DHT22;2730;51.512;7.504;2023-05-08T11:49:09;20.60;1.00
5415;DHT22;2730;51.512;7.504;2023-05-08T11:51:36;20.60;1.00
5415;DHT22;2730;51.512;7.504;2023-05-08T11:54:04;20.60;1.00
5415;DHT22;2730;51.512;7.504;2023-05-08T11:56:32;20.30;1.00
5415;DHT22;2730;51.512;7.504;2023-05-08T11:59:03;20.00;1.00
5415;DHT22;2730;51.512;7.504;2023-05-08T12:01:30;20.00;1.00
5415;DHT22;2730;51.512;7.504;2023-05-08T12:04:05;19.90;1.00
5415;DHT22;2730;51.512;7.504;2023-05-08T12:06:32;19.80;1.00
5415;DHT22;2730;51.512;7.504;2023-05-08T12:09:01;19.80;1.00
5415;DHT22;2730;51.512;7.504;2023-05-08T12:11:29;19.60;1.00
5415;DHT22;2730;51.512;7.504;2023-05-08T12:13:57;19.70;1.00
5415;DHT22;2730;51.512;7.504;2023-05-08T12:16:24;19.50;1.00
5415;DHT22;2730;51.512;7.504;2023-05-08T12:18:51;19.50;1.00
5415;DHT22;2730;51.512;7.504;2023-05-08T12:21:19;19.40;1.00
5415;DHT22;2730;51.512;7.504;2023-05-08T12:23:47;19.30;1.00
5415;DHT22;2730;51.512;7.504;2023-05-08T12:26:14;19.50;1.00
5415;DHT22;2730;51.512;7.504;2023-05-08T12:28:43;19.60;1.00
5415;DHT22;2730;51.512;7.504;2023-05-08T12:31:13;19.60;1.00
5415;DHT22;2730;51.512;7.504;2023-05-08T12:33:40;19.80;1.00
5415;DHT22;2730;51.512;7.504;2023-05-08T12:36:08;19.90;1.00
5415;DHT22;2730;51.512;7.504;2023-05-08T12:38:34;20.10;1.00
5415;DHT22;2730;51.512;7.504;2023-05-08T12:41:01;20.40;1.00
5415;DHT22;2730;51.512;7.504;2023-05-08T12:43:32;20.60;99.90
5415;DHT22;2730;51.512;7.504;2023-05-08T12:45:59;20.70;1.00
5415;DHT22;2730;51.512;7.504;2023-05-08T12:48:27;20.90;1.00
5415;DHT22;2730;51.512;7.504;2023-05-08T12:51:00;20.90;1.00
5415;DHT22;2730;51.512;7.504;2023-05-08T12:53:29;21.00;99.90
5415;DHT22;2730;51.512;7.504;2023-05-08T12:56:00;21.30;99.90
5415;DHT22;2730;51.512;7.504;2023-05-08T12:58:29;21.40;99.90
5415;DHT22;2730;51.512;7.504;2023-05-08T13:01:04;21.50;1.00
5415;DHT22;2730;51.512;7.504;2023-05-08T13:03:33;21.60;99.90
5415;DHT22;2730;51.512;7.504;2023-05-08T13:06:00;21.60;99.90
5415;DHT22;2730;51.512;7.504;2023-05-08T13:08:31;21.50;1.00
5415;DHT22;2730;51.512;7.504;2023-05-08T13:10:59;21.50;99.90
5415;DHT22;2730;51.512;7.504;2023-05-08T13:13:28;21.50;1.00
5415;DHT22;2730;51.512;7.504;2023-05-08T13:15:55;21.50;1.00
5415;DHT22;2730;51.512;7.504;2023-05-08T13:18:24;21.60;99.90
5415;DHT22;2730;51.512;7.504;2023-05-08T13:20:53;21.50;1.00
5415;DHT22;2730;51.512;7.504;2023-05-08T13:23:21;21.50;99.90
5415;DHT22;2730;51.512;7.504;2023-05-08T13:25:48;21.30;99.90
5415;DHT22;2730;51.512;7.504;2023-05-08T13:28:15;21.40;99.90
5415;DHT22;2730;51.512;7.504;2023-05-08T13:30:42;21.40;99.90
5415;DHT22;2730;51.512;7.504;2023-05-08T13:33:08;21.30;99.90
5415;DHT22;2730;51.512;7.504;2023-05-08T13:35:35;21.30;1.00
5415;DHT22;2730;51.512;7.504;2023-05-08T13:38:03;21.30;99.90
5415;DHT22;2730;51.512;7.504;2023-05-08T13:40:30;21.30;1.00
5415;DHT22;2730;51.512;7.504;2023-05-08T13:42:57;21.20;1.00
5415;DHT22;2730;51.512;7.504;2023-05-08T13:45:24;21.20;74.60
5415;DHT22;2730;51.512;7.504;2023-05-08T13:47:51;21.30;99.90
5415;DHT22;2730;51.512;7.504;2023-05-08T13:50:18;21.40;99.90
5415;DHT22;2730;51.512;7.504;2023-05-08T13:52:46;21.40;99.90
5415;DHT22;2730;51.512;7.504;2023-05-08T13:55:14;21.30;65.00
5415;DHT22;2730;51.512;7.504;2023-05-08T13:57:41;21.30;1.00
5415;DHT22;2730;51.512;7.504;2023-05-08T14:00:09;21.20;1.00
5415;DHT22;2730;51.512;7.504;2023-05-08T14:02:36;21.10;99.90
5415;DHT22;2730;51.512;7.504;2023-05-08T14:05:04;20.90;99.90
5415;DHT22;2730;51.512;7.504;2023-05-08T14:07:32;20.90;1.00
5415;DHT22;2730;51.512;7.504;2023-05-08T14:09:59;20.90;1.00
5415;DHT22;2730;51.512;7.504;2023-05-08T14:12:27;20.80;99.90
5415;DHT22;2730;51.512;7.504;2023-05-08T14:14:54;20.80;1.00
5415;DHT22;2730;51.512;7.504;2023-05-08T14:17:21;20.60;1.00
5415;DHT22;2730;51.512;7.504;2023-05-08T14:19:48;20.40;1.00
5415;DHT22;2730;51.512;7.504;2023-05-08T14:22:14;20.10;1.00
5415;DHT22;2730;51.512;7.504;2023-05-08T14:24:41;19.90;1.00
5415;DHT22;2730;51.512;7.504;2023-05-08T14:27:08;19.80;99.90
5415;DHT22;2730;51.512;7.504;2023-05-08T14:29:37;20.00;99.90
5415;DHT22;2730;51.512;7.504;2023-05-08T14:32:04;20.10;1.00
5415;DHT22;2730;51.512;7.504;2023-05-08T14:34:30;20.30;1.00
5415;DHT22;2730;51.512;7.504;2023-05-08T14:36:57;20.10;1.00
5415;DHT22;2730;51.512;7.504;2023-05-08T14:39:24;20.30;1.00
5415;DHT22;2730;51.512;7.504;2023-05-08T14:41:51;20.10;1.00
5415;DHT22;2730;51.512;7.504;2023-05-08T14:44:17;20.20;99.90
5415;DHT22;2730;51.512;7.504;2023-05-08T14:46:45;20.30;15.20
5415;DHT22;2730;51.512;7.504;2023-05-08T14:49:12;20.30;39.00
5415;DHT22;2730;51.512;7.504;2023-05-08T14:51:39;20.30;5.70
5415;DHT22;2730;51.512;7.504;2023-05-08T14:54:06;20.20;99.90
5415;DHT22;2730;51.512;7.504;2023-05-08T14:56:33;20.30;99.90
5415;DHT22;2730;51.512;7.504;2023-05-08T14:58:59;20.20;1.00
5415;DHT22;2730;51.512;7.504;2023-05-08T15:01:26;20.30;1.00
5415;DHT22;2730;51.512;7.504;2023-05-08T15:03:54;20.40;1.00
5415;DHT22;2730;51.512;7.504;2023-05-08T15:06:22;20.60;1.00
5415;DHT22;2730;51.512;7.504;2023-05-08T15:08:49;20.70;1.00
5415;DHT22;2730;51.512;7.504;2023-05-08T15:11:17;20.70;6.90
5415;DHT22;2730;51.512;7.504;2023-05-08T15:13:44;20.70;99.90
5415;DHT22;2730;51.512;7.504;2023-05-08T15:16:11;20.80;99.90
5415;DHT22;2730;51.512;7.504;2023-05-08T15:18:37;20.70;99.90
5415;DHT22;2730;51.512;7.504;2023-05-08T15:21:06;20.70;99.90
5415;DHT22;2730;51.512;7.504;2023-05-08T15:23:33;20.80;99.90
5415;DHT22;2730;51.512;7.504;2023-05-08T15:26:01;20.80;1.00
5415;DHT22;2730;51.512;7.504;2023-05-08T15:28:27;20.80;99.90
5415;DHT22;2730;51.512;7.504;2023-05-08T15:30:54;20.70;66.50
5415;DHT22;2730;51.512;7.504;2023-05-08T15:33:21;20.60;1.00
5415;DHT22;2730;51.512;7.504;2023-05-08T15:35:48;20.60;99.90
5415;DHT22;2730;51.512;7.504;2023-05-08T15:38:16;20.60;1.00
5415;DHT22;2730;51.512;7.504;2023-05-08T15:40:43;20.60;99.90
5415;DHT22;2730;51.512;7.504;2023-05-08T15:43:09;20.50;40.10
5415;DHT22;2730;51.512;7.504;2023-05-08T15:45:36;20.50;1.00
5415;DHT22;2730;51.512;7.504;2023-05-08T15:48:03;20.50;1.00
5415;DHT22;2730;51.512;7.504;2023-05-08T15:50:30;20.40;99.90
5415;DHT22;2730;51.512;7.504;2023-05-08T15:52:57;20.40;99.90
5415;DHT22;2730;51.512;7.504;2023-05-08T15:55:25;20.40;99.90
5415;DHT22;2730;51.512;7.504;2023-05-08T15:57:52;20.50;1.00
5415;DHT22;2730;51.512;7.504;2023-05-08T16:00:19;20.60;89.30
5415;DHT22;2730;51.512;7.504;2023-05-08T16:02:46;20.60;1.00
5415;DHT22;2730;51.512;7.504;2023-05-08T16:05:13;20.50;95.60
5415;DHT22;2730;51.512;7.504;2023-05-08T16:07:40;20.60;99.90
5415;DHT22;2730;51.512;7.504;2023-05-08T16:10:08;20.60;1.00
5415;DHT22;2730;51.512;7.504;2023-05-08T16:12:37;20.60;99.90
5415;DHT22;2730;51.512;7.504;2023-05-08T16:15:04;20.60;99.90
5415;DHT22;2730;51.512;7.504;2023-05-08T16:17:31;20.50;99.90
5415;DHT22;2730;51.512;7.504;2023-05-08T16:19:58;20.50;1.00
5415;DHT22;2730;51.512;7.504;2023-05-08T16:22:26;20.40;1.00
5415;DHT22;2730;51.512;7.504;2023-05-08T16:24:53;20.30;1.00